Time;durP1;ratioP1;P1;durP2;ratioP2;P2;SDS_P1;SDS_P2;PMS_P1;PMS_P2;Temp;Humidity;BMP_temperature;BMP_pressure;BME280_temperature;BME280_humidity;BME280_pressure;Samples;Min_cycle;Max_cycle;Signal;HPM_P1;HPM_P2
2022/05/12 00:01:19;;;;;;;20.20;4.60;;;12.30;90.60;;;;;;5002787;28;20046;-81
2022/05/12 00:03:44;;;;;;;19.85;5.78;;;12.30;90.60;;;;;;5013763;28;20038;-81
2022/05/12 00:06:10;;;;;;;12.00;4.40;;;12.30;90.70;;;;;;5010607;28;20583;-81
2022/05/12 00:08:35;;;;;;;15.82;4.75;;;12.30;90.80;;;;;;5008025;28;20197;-81
2022/05/12 00:11:02;;;;;;;10.75;4.30;;;12.30;90.70;;;;;;5008723;28;20084;-81
2022/05/12 00:13:27;;;;;;;17.45;5.28;;;12.40;90.80;;;;;;4996881;28;20026;-81
2022/05/12 00:15:54;;;;;;;18.27;5.07;;;12.40;90.90;;;;;;5007254;28;20431;-81
2022/05/12 00:18:20;;;;;;;13.45;4.57;;;12.30;91.00;;;;;;4999696;28;20026;-81
2022/05/12 00:20:45;;;;;;;14.95;4.90;;;12.40;90.90;;;;;;5011322;28;20080;-81
2022/05/12 00:23:14;;;;;;;17.80;4.68;;;12.40;91.00;;;;;;5003664;28;20040;-81
2022/05/12 00:25:41;;;;;;;17.80;5.55;;;12.40;91.10;;;;;;4998646;28;20056;-81
2022/05/12 00:28:07;;;;;;;16.10;5.60;;;12.40;91.10;;;;;;5007754;28;20045;-81
2022/05/12 00:30:33;;;;;;;20.63;5.53;;;12.50;91.20;;;;;;5010263;28;20034;-81
2022/05/12 00:33:00;;;;;;;22.13;5.40;;;12.50;91.20;;;;;;4998986;28;20057;-81
2022/05/12 00:35:25;;;;;;;18.83;4.65;;;12.50;91.20;;;;;;5013007;28;20568;-81
2022/05/12 00:37:51;;;;;;;20.20;4.95;;;12.50;91.30;;;;;;5008599;28;20105;-81
2022/05/12 00:40:17;;;;;;;12.93;5.03;;;12.50;91.40;;;;;;4999866;28;20022;-81
2022/05/12 00:42:56;;;;;;;16.60;4.72;;;12.50;91.30;;;;;;4997654;28;20022;-81
2022/05/12 00:45:22;;;;;;;12.80;4.90;;;12.60;91.40;;;;;;5008259;28;20053;-81
2022/05/12 00:47:48;;;;;;;16.73;5.00;;;12.50;91.40;;;;;;4998354;28;20056;-81
2022/05/12 00:50:15;;;;;;;20.33;5.18;;;12.60;91.40;;;;;;4993664;28;20116;-81
2022/05/12 00:52:41;;;;;;;15.98;5.40;;;12.60;91.50;;;;;;4989606;28;20030;-81
2022/05/12 00:55:12;;;;;;;20.52;5.30;;;12.60;91.50;;;;;;4992571;28;20535;-81
2022/05/12 00:57:40;;;;;;;12.90;5.00;;;12.60;91.60;;;;;;4995674;28;20384;-81
2022/05/12 01:00:08;;;;;;;19.10;4.82;;;12.60;91.70;;;;;;5004106;28;20033;-81
2022/05/12 01:02:36;;;;;;;17.80;5.47;;;12.60;91.70;;;;;;5010536;28;20033;-81
2022/05/12 01:05:03;;;;;;;17.35;5.70;;;12.60;91.70;;;;;;5010860;28;20029;-81
2022/05/12 01:07:29;;;;;;;23.77;5.70;;;12.60;91.70;;;;;;5008507;28;20053;-81
2022/05/12 01:09:56;;;;;;;16.98;5.13;;;12.60;91.80;;;;;;4994203;28;20417;-81
2022/05/12 01:12:22;;;;;;;15.40;5.32;;;12.70;91.80;;;;;;4996360;28;20052;-81
2022/05/12 01:14:47;;;;;;;12.00;5.07;;;12.70;91.80;;;;;;4997436;28;20117;-81
2022/05/12 01:17:13;;;;;;;14.38;4.85;;;12.70;91.80;;;;;;5009267;28;20161;-81
2022/05/12 01:19:41;;;;;;;11.02;4.85;;;12.80;91.80;;;;;;5001466;28;20516;-81
2022/05/12 01:22:10;;;;;;;14.38;5.35;;;12.80;91.70;;;;;;4992757;28;20859;-81
2022/05/12 01:24:45;;;;;;;11.93;4.50;;;12.70;91.80;;;;;;4996730;28;20030;-81
2022/05/12 01:27:20;;;;;;;18.00;5.32;;;12.70;92.00;;;;;;5002068;28;20028;-81
2022/05/12 01:29:50;;;;;;;13.07;5.20;;;12.70;92.00;;;;;;5010974;28;20471;-81
2022/05/12 01:32:16;;;;;;;14.77;5.03;;;12.80;91.90;;;;;;5007956;28;20449;-81
2022/05/12 01:34:42;;;;;;;14.68;4.78;;;12.70;91.90;;;;;;4993297;28;20030;-81
2022/05/12 01:37:07;;;;;;;13.10;4.78;;;12.80;91.60;;;;;;4990757;28;20062;-81
2022/05/12 01:39:35;;;;;;;16.15;4.45;;;12.80;91.40;;;;;;5011004;28;20489;-81
2022/05/12 01:42:02;;;;;;;16.33;4.30;;;12.70;90.70;;;;;;4993471;28;20029;-81
2022/05/12 01:44:28;;;;;;;8.52;4.10;;;12.80;90.10;;;;;;5008825;28;20026;-81
2022/05/12 01:46:54;;;;;;;14.93;4.00;;;12.80;89.80;;;;;;5002181;28;20025;-80
2022/05/12 01:49:20;;;;;;;9.85;3.80;;;12.80;89.30;;;;;;4998845;28;20049;-81
2022/05/12 01:51:45;;;;;;;8.45;3.13;;;12.80;88.50;;;;;;5006594;28;20022;-80
2022/05/12 01:54:11;;;;;;;6.65;2.50;;;12.90;87.40;;;;;;4994079;28;20045;-81
2022/05/12 01:56:36;;;;;;;5.85;2.45;;;13.00;86.60;;;;;;5008368;28;20042;-81
2022/05/12 01:59:02;;;;;;;4.65;2.10;;;13.00;85.90;;;;;;5003800;28;20065;-81
2022/05/12 02:01:27;;;;;;;8.10;2.30;;;13.00;85.20;;;;;;4990545;28;20030;-81
2022/05/12 02:03:53;;;;;;;4.88;2.10;;;13.10;84.50;;;;;;5009888;28;20058;-81
2022/05/12 02:06:18;;;;;;;7.65;1.88;;;13.20;84.00;;;;;;4994636;28;20089;-81
2022/05/12 02:08:44;;;;;;;6.55;2.00;;;13.10;83.90;;;;;;5006119;28;20509;-81
2022/05/12 02:11:09;;;;;;;7.03;1.75;;;13.20;84.10;;;;;;5010437;28;20037;-81
2022/05/12 02:13:35;;;;;;;6.68;1.80;;;13.10;83.60;;;;;;5010027;28;20400;-81
2022/05/12 02:16:01;;;;;;;7.20;2.35;;;13.10;83.90;;;;;;5006294;28;20495;-81
2022/05/12 02:18:28;;;;;;;6.05;2.05;;;13.10;83.50;;;;;;5006406;28;20041;-81
2022/05/12 02:20:54;;;;;;;5.05;2.30;;;13.10;83.20;;;;;;5009153;28;20018;-81
2022/05/12 02:23:20;;;;;;;10.55;2.67;;;13.10;83.40;;;;;;5010776;28;20018;-81
2022/05/12 02:25:46;;;;;;;5.32;2.30;;;13.10;83.30;;;;;;4997626;28;20117;-81
2022/05/12 02:28:12;;;;;;;7.53;2.25;;;13.00;83.40;;;;;;4995883;28;20033;-81
2022/05/12 02:30:38;;;;;;;6.10;2.67;;;13.00;83.50;;;;;;4995442;28;20477;-81
2022/05/12 02:33:04;;;;;;;7.22;2.38;;;12.90;83.80;;;;;;5004931;28;20044;-81
2022/05/12 02:35:30;;;;;;;7.30;2.42;;;12.90;84.40;;;;;;5009231;28;20034;-82
2022/05/12 02:37:56;;;;;;;5.28;1.90;;;12.60;84.90;;;;;;5001391;28;20651;-81
2022/05/12 02:40:25;;;;;;;6.78;1.50;;;12.50;85.40;;;;;;4995869;28;20116;-82
2022/05/12 02:42:50;;;;;;;6.25;1.90;;;12.30;85.50;;;;;;4997743;28;20022;-82
2022/05/12 02:45:16;;;;;;;2.90;1.20;;;12.10;85.40;;;;;;5009714;28;20056;-82
2022/05/12 02:47:42;;;;;;;6.95;1.25;;;12.00;85.80;;;;;;5007978;28;20461;-81
2022/05/12 02:50:09;;;;;;;3.22;0.88;;;11.90;85.80;;;;;;5011078;28;20026;-82
2022/05/12 02:52:35;;;;;;;4.18;1.40;;;11.80;85.50;;;;;;5014401;28;20029;-82
2022/05/12 02:55:00;;;;;;;3.88;1.45;;;11.70;85.90;;;;;;4991738;28;20030;-82
2022/05/12 02:57:26;;;;;;;2.45;1.10;;;11.60;86.20;;;;;;5014679;28;20125;-81
2022/05/12 02:59:51;;;;;;;4.97;1.13;;;11.60;86.30;;;;;;5013103;28;20084;-82
2022/05/12 03:02:18;;;;;;;4.38;1.10;;;11.50;85.70;;;;;;4994019;28;20042;-81
2022/05/12 03:04:44;;;;;;;4.07;1.38;;;11.50;85.90;;;;;;4997882;28;20029;-82
2022/05/12 03:07:10;;;;;;;2.80;1.20;;;11.50;86.20;;;;;;5007989;28;20543;-81
2022/05/12 03:09:36;;;;;;;3.97;1.17;;;11.40;86.30;;;;;;4999361;28;20116;-82
2022/05/12 03:12:01;;;;;;;1.40;0.90;;;11.40;85.60;;;;;;5011447;28;20042;-81
2022/05/12 03:14:27;;;;;;;1.38;0.88;;;11.40;85.60;;;;;;5015470;28;20034;-82
2022/05/12 03:16:53;;;;;;;4.45;1.17;;;11.30;85.30;;;;;;4998539;28;20437;-81
2022/05/12 03:19:21;;;;;;;2.88;1.30;;;11.40;85.60;;;;;;4989926;28;20359;-81
2022/05/12 03:21:46;;;;;;;3.53;1.27;;;11.40;85.90;;;;;;5007485;28;20386;-82
2022/05/12 03:24:13;;;;;;;2.88;1.13;;;11.30;86.20;;;;;;4996338;28;20018;-82
2022/05/12 03:26:39;;;;;;;8.05;1.23;;;11.30;86.50;;;;;;4994591;28;20058;-81
2022/05/12 03:29:04;;;;;;;1.58;1.33;;;11.40;86.80;;;;;;4992937;28;20068;-81
2022/05/12 03:31:30;;;;;;;6.72;1.45;;;11.30;86.80;;;;;;4995863;28;20029;-81
2022/05/12 03:33:55;;;;;;;6.65;1.50;;;11.30;86.90;;;;;;5008627;28;20100;-81
2022/05/12 03:36:22;;;;;;;5.45;1.60;;;11.20;87.10;;;;;;4995875;28;20030;-81
2022/05/12 03:38:48;;;;;;;5.95;1.60;;;11.10;87.30;;;;;;5011521;28;20482;-81
2022/05/12 03:41:13;;;;;;;4.88;1.90;;;11.10;87.40;;;;;;4996396;28;20026;-82
2022/05/12 03:46:23;;;;;;;7.18;1.60;;;10.90;87.70;;;;;;5010909;28;20145;-81
2022/05/12 03:48:49;;;;;;;5.63;1.50;;;10.90;87.90;;;;;;5010127;28;20121;-81
2022/05/12 03:51:14;;;;;;;8.02;1.65;;;10.80;88.00;;;;;;5007727;28;20034;-81
2022/05/12 03:53:40;;;;;;;4.40;1.77;;;10.80;88.00;;;;;;4993518;28;20440;-81
2022/05/12 03:56:07;;;;;;;6.65;2.20;;;10.80;88.10;;;;;;5011921;28;20104;-81
2022/05/12 03:58:34;;;;;;;6.88;1.98;;;10.80;87.80;;;;;;4991902;28;20066;-82
2022/05/12 04:01:00;;;;;;;3.50;1.77;;;10.80;87.70;;;;;;5001091;28;20030;-81
2022/05/12 04:03:26;;;;;;;4.53;2.28;;;10.90;87.70;;;;;;5010928;28;20065;-81
2022/05/12 04:05:53;;;;;;;6.78;1.92;;;10.90;87.80;;;;;;5013953;28;20079;-81
2022/05/12 04:08:18;;;;;;;7.72;1.83;;;10.80;87.80;;;;;;4993276;28;20061;-80
2022/05/12 04:10:44;;;;;;;5.72;2.33;;;10.90;88.00;;;;;;4989055;28;20030;-82
2022/05/12 04:13:09;;;;;;;7.47;2.60;;;10.80;87.70;;;;;;4994627;28;20088;-81
2022/05/12 04:15:35;;;;;;;10.00;2.22;;;10.90;87.50;;;;;;5006638;28;20036;-81
2022/05/12 04:18:04;;;;;;;6.10;2.42;;;10.90;87.10;;;;;;5006006;28;20026;-81
2022/05/12 04:20:31;;;;;;;5.00;2.65;;;11.00;87.00;;;;;;5017059;28;20036;-82
2022/05/12 04:22:57;;;;;;;6.05;2.83;;;11.00;86.90;;;;;;4992358;28;20036;-82
2022/05/12 04:25:23;;;;;;;4.95;2.40;;;11.00;86.70;;;;;;4989106;28;20030;-82
2022/05/12 04:27:49;;;;;;;6.03;2.60;;;11.00;86.70;;;;;;4996680;28;20034;-84
2022/05/12 04:30:17;;;;;;;5.35;2.40;;;11.00;86.70;;;;;;4995503;28;20036;-85
2022/05/12 04:32:43;;;;;;;6.88;2.72;;;11.00;86.80;;;;;;5013193;28;20112;-82
2022/05/12 04:35:14;;;;;;;8.25;2.70;;;10.90;86.80;;;;;;4999683;28;20045;-83
2022/05/12 04:37:47;;;;;;;;;;;10.90;86.90;;;;;;4999286;28;20169;-84
2022/05/12 04:40:16;;;;;;;7.35;2.55;;;10.90;87.00;;;;;;4996022;28;19910;-83
2022/05/12 04:42:43;;;;;;;4.78;2.42;;;10.90;86.80;;;;;;5004062;28;20030;-83
2022/05/12 04:45:10;;;;;;;3.85;2.03;;;10.90;86.80;;;;;;5011115;28;20022;-82
2022/05/12 04:47:38;;;;;;;4.95;2.25;;;11.00;86.80;;;;;;4994034;28;20030;-83
2022/05/12 04:50:05;;;;;;;4.57;2.40;;;11.00;87.00;;;;;;5002790;28;20053;-82
2022/05/12 04:52:31;;;;;;;6.20;2.55;;;11.00;87.10;;;;;;5010380;28;20030;-83
2022/05/12 04:54:57;;;;;;;5.38;2.15;;;10.90;87.00;;;;;;5008112;28;20516;-83
2022/05/12 04:57:22;;;;;;;8.60;2.20;;;11.00;87.20;;;;;;4995186;28;20033;-83
2022/05/12 04:59:51;;;;;;;6.78;2.78;;;10.90;86.90;;;;;;4992399;28;20093;-83
2022/05/12 05:02:17;;;;;;;6.25;2.58;;;11.00;87.00;;;;;;4997485;28;20083;-83
2022/05/12 05:04:43;;;;;;;5.15;2.65;;;11.00;86.90;;;;;;4997980;28;20401;-82
2022/05/12 05:07:10;;;;;;;8.82;3.05;;;11.00;86.90;;;;;;4991037;28;20030;-81
2022/05/12 05:09:36;;;;;;;9.05;2.90;;;11.10;86.80;;;;;;4989962;28;20025;-82
2022/05/12 05:12:02;;;;;;;9.75;3.08;;;11.10;86.70;;;;;;4984210;28;20034;-82
2022/05/12 05:14:28;;;;;;;8.57;2.70;;;11.10;86.40;;;;;;5004860;28;20022;-82
2022/05/12 05:16:53;;;;;;;7.95;2.58;;;11.10;86.20;;;;;;5009789;28;20438;-82
2022/05/12 05:19:19;;;;;;;8.10;2.72;;;11.10;86.30;;;;;;5010720;28;20080;-81
2022/05/12 05:21:44;;;;;;;4.97;2.45;;;11.20;86.20;;;;;;5002587;28;20026;-81
2022/05/12 05:24:10;;;;;;;9.30;2.50;;;11.20;85.80;;;;;;5006937;28;20450;-81
2022/05/12 05:26:35;;;;;;;8.30;2.25;;;11.20;85.60;;;;;;4997099;28;20030;-81
2022/05/12 05:29:01;;;;;;;7.43;2.13;;;11.30;85.40;;;;;;4991143;28;20377;-81
2022/05/12 05:31:27;;;;;;;9.23;2.20;;;11.30;84.90;;;;;;5007717;28;20038;-81
2022/05/12 05:33:53;;;;;;;6.80;1.92;;;11.40;84.60;;;;;;5012402;28;20667;-81
2022/05/12 05:36:19;;;;;;;8.65;2.30;;;11.50;84.20;;;;;;5005360;28;20449;-81
2022/05/12 05:38:45;;;;;;;7.65;2.28;;;11.30;84.30;;;;;;5005611;28;20022;-81
2022/05/12 05:41:11;;;;;;;7.55;2.38;;;11.50;84.50;;;;;;5004208;28;20053;-81
2022/05/12 05:43:37;;;;;;;8.32;2.22;;;11.40;84.20;;;;;;5006238;28;20034;-81
2022/05/12 05:46:03;;;;;;;5.18;2.40;;;11.50;84.40;;;;;;4991293;28;20084;-81
2022/05/12 05:48:29;;;;;;;7.38;2.30;;;11.50;84.40;;;;;;5007767;28;20045;-81
2022/05/12 05:53:39;;;;;;;13.35;2.40;;;11.60;84.50;;;;;;5016465;28;20305;-81
2022/05/12 05:56:09;;;;;;;8.43;2.05;;;11.60;84.10;;;;;;4993346;28;20046;-81
2022/05/12 05:58:35;;;;;;;7.80;2.15;;;11.70;83.90;;;;;;5014739;28;20065;-81
2022/05/12 06:01:00;;;;;;;5.55;2.25;;;11.70;84.10;;;;;;5009288;28;20492;-81
2022/05/12 06:03:26;;;;;;;6.82;2.40;;;11.60;83.70;;;;;;5009732;28;20532;-81
2022/05/12 06:05:53;;;;;;;5.25;1.98;;;11.60;83.90;;;;;;5007719;28;20120;-81
2022/05/12 06:08:20;;;;;;;9.63;2.40;;;11.60;83.60;;;;;;5010745;28;20400;-82
2022/05/12 06:10:47;;;;;;;7.13;2.17;;;11.70;83.80;;;;;;5009838;28;20054;-83
2022/05/12 06:13:14;;;;;;;7.13;2.20;;;11.80;83.70;;;;;;5006996;28;20424;-83
2022/05/12 06:15:40;;;;;;;5.97;2.10;;;11.90;83.50;;;;;;5000004;28;20021;-83
2022/05/12 06:18:13;;;;;;;12.60;2.20;;;11.90;83.40;;;;;;4995794;28;20026;-80
2022/05/12 06:20:40;;;;;;;7.00;1.77;;;12.00;83.20;;;;;;5007806;28;20022;-80
2022/05/12 06:23:05;;;;;;;5.95;2.10;;;12.20;83.20;;;;;;4992583;28;20030;-81
2022/05/12 06:25:31;;;;;;;5.18;2.22;;;12.10;82.70;;;;;;4996308;28;20049;-81
2022/05/12 06:27:57;;;;;;;5.53;1.90;;;12.10;83.00;;;;;;5009572;28;20069;-81
2022/05/12 06:30:22;;;;;;;6.38;2.13;;;12.10;82.10;;;;;;5002185;28;20057;-81
2022/05/12 06:32:48;;;;;;;5.90;2.15;;;12.20;82.10;;;;;;4995454;28;20255;-81
2022/05/12 06:35:20;;;;;;;8.65;2.08;;;12.30;81.60;;;;;;5020423;28;20026;-81
2022/05/12 06:37:45;;;;;;;3.83;1.80;;;12.60;81.00;;;;;;5008090;28;20033;-80
2022/05/12 06:40:11;;;;;;;6.43;2.10;;;12.70;81.10;;;;;;5009985;28;20033;-81
2022/05/12 06:42:41;;;;;;;8.43;2.53;;;12.40;81.10;;;;;;4996849;28;20026;-81
2022/05/12 06:45:08;;;;;;;4.45;1.90;;;12.40;81.10;;;;;;5010789;28;20481;-81
2022/05/12 06:47:33;;;;;;;7.47;1.90;;;12.60;80.70;;;;;;4998953;28;20037;-81
2022/05/12 06:50:01;;;;;;;6.57;1.90;;;12.70;80.10;;;;;;5011148;28;20108;-81
2022/05/12 06:52:27;;;;;;;3.47;1.60;;;12.80;80.10;;;;;;5008590;28;20022;-81
2022/05/12 06:54:53;;;;;;;7.70;1.80;;;12.80;79.50;;;;;;5012656;28;20053;-81
2022/05/12 06:57:21;;;;;;;5.85;2.00;;;12.80;79.00;;;;;;5010227;28;20022;-81
2022/05/12 06:59:47;;;;;;;4.25;1.98;;;12.80;79.40;;;;;;5003485;28;20071;-81
2022/05/12 07:02:12;;;;;;;7.20;1.95;;;13.10;79.90;;;;;;5005546;28;20026;-81
2022/05/12 07:04:38;;;;;;;3.38;1.45;;;13.20;78.30;;;;;;5012225;28;20038;-81
2022/05/12 07:07:05;;;;;;;4.13;1.88;;;13.30;78.10;;;;;;5011799;28;20535;-81
2022/05/12 07:09:31;;;;;;;5.05;1.90;;;13.50;78.10;;;;;;4998509;28;20375;-81
2022/05/12 07:11:57;;;;;;;6.30;1.92;;;13.60;78.20;;;;;;5018344;28;20056;-81
2022/05/12 07:14:23;;;;;;;4.63;1.88;;;13.40;77.40;;;;;;5012941;28;20503;-81
2022/05/12 07:16:49;;;;;;;7.70;1.75;;;13.50;76.60;;;;;;4995399;28;20389;-81
2022/05/12 07:19:16;;;;;;;6.25;1.90;;;13.80;75.50;;;;;;5011004;28;20466;-81
2022/05/12 07:27:16;;;;;;;5.38;1.50;;;13.90;75.20;;;;;;5005493;28;20037;-81
2022/05/12 07:29:42;;;;;;;4.78;1.40;;;14.00;75.50;;;;;;5014863;28;20440;-81
2022/05/12 07:32:08;;;;;;;3.75;1.40;;;14.50;75.20;;;;;;4989259;28;20079;-81
2022/05/12 07:34:34;;;;;;;5.03;1.40;;;14.50;73.30;;;;;;5009250;28;20052;-82
2022/05/12 07:37:00;;;;;;;3.95;1.23;;;14.40;72.80;;;;;;5012952;28;20461;-82
2022/05/12 07:39:28;;;;;;;5.22;1.40;;;14.60;72.20;;;;;;5008447;28;20026;-82
2022/05/12 07:41:58;;;;;;;4.45;1.35;;;14.80;71.50;;;;;;4992581;28;20447;-82
2022/05/12 07:44:31;;;;;;;6.53;1.30;;;14.90;71.80;;;;;;5012317;28;20021;-82
2022/05/12 07:47:00;;;;;;;4.28;1.20;;;15.20;71.20;;;;;;5017621;28;20110;-82
2022/05/12 07:49:28;;;;;;;3.05;1.15;;;15.10;68.60;;;;;;5012277;28;20532;-82
2022/05/12 07:51:54;;;;;;;2.80;1.38;;;15.20;68.30;;;;;;4994734;28;20026;-82
2022/05/12 07:54:19;;;;;;;3.50;1.20;;;15.00;68.60;;;;;;5007983;28;20370;-82
2022/05/12 07:56:45;;;;;;;3.75;1.23;;;14.80;68.70;;;;;;5004458;28;20406;-82
2022/05/12 07:59:10;;;;;;;3.38;0.93;;;15.30;68.00;;;;;;5013492;28;20373;-82
2022/05/12 08:01:38;;;;;;;3.38;1.25;;;15.30;68.60;;;;;;4992713;28;20019;-82
2022/05/12 08:04:03;;;;;;;3.55;1.10;;;15.40;68.80;;;;;;5011787;28;20053;-82
2022/05/12 08:06:29;;;;;;;3.65;1.23;;;15.50;67.70;;;;;;4995488;28;20139;-82
2022/05/12 08:08:55;;;;;;;6.32;1.30;;;16.10;68.30;;;;;;5009625;28;20448;-82
2022/05/12 08:11:20;;;;;;;4.47;1.02;;;16.00;65.10;;;;;;4996467;28;20092;-82
2022/05/12 08:13:47;;;;;;;4.13;0.90;;;15.90;65.50;;;;;;4992672;28;20115;-82
2022/05/12 08:16:15;;;;;;;5.18;1.38;;;16.00;65.90;;;;;;4993099;28;20030;-82
2022/05/12 08:18:42;;;;;;;3.30;1.00;;;15.80;66.60;;;;;;5013160;28;20454;-82
2022/05/12 08:21:08;;;;;;;4.55;1.23;;;15.50;65.60;;;;;;5013001;28;20484;-82
2022/05/12 08:23:33;;;;;;;4.88;1.23;;;15.90;65.40;;;;;;5008373;28;20038;-82
2022/05/12 08:25:59;;;;;;;4.75;1.48;;;16.00;63.90;;;;;;5009613;28;20041;-82
2022/05/12 08:28:25;;;;;;;6.43;1.00;;;16.50;64.30;;;;;;5012389;28;20073;-82
2022/05/12 08:30:51;;;;;;;9.65;1.20;;;16.30;64.00;;;;;;5008688;28;20029;-82
2022/05/12 08:33:19;;;;;;;2.53;1.08;;;15.70;64.20;;;;;;5011751;28;20022;-82
2022/05/12 08:35:45;;;;;;;4.82;1.23;;;15.70;64.20;;;;;;4994298;28;20037;-82
2022/05/12 08:38:12;;;;;;;7.90;1.20;;;15.50;64.00;;;;;;5014489;28;20109;-82
2022/05/12 08:41:18;;;;;;;3.38;0.98;;;15.90;64.70;;;;;;5002556;28;20080;-82
2022/05/12 08:43:44;;;;;;;3.30;1.10;;;16.00;63.90;;;;;;4949860;28;20038;-82
2022/05/12 08:46:13;;;;;;;2.95;0.73;;;16.30;63.60;;;;;;4999692;28;20432;-82
2022/05/12 08:48:42;;;;;;;1.70;0.90;;;15.90;62.80;;;;;;5009379;28;20034;-82
2022/05/12 08:51:12;;;;;;;4.75;1.17;;;15.60;65.30;;;;;;5009770;28;20096;-82
2022/05/12 08:53:59;;;;;;;4.22;1.02;;;16.00;62.20;;;;;;5004944;28;20038;-81
2022/05/12 08:56:25;;;;;;;5.53;1.25;;;16.30;60.60;;;;;;5005699;28;20388;-82
2022/05/12 08:58:54;;;;;;;3.67;1.10;;;16.20;62.10;;;;;;4994387;28;20021;-82
2022/05/12 09:01:28;;;;;;;3.63;1.02;;;16.50;61.90;;;;;;4999825;28;20018;-81
2022/05/12 09:04:01;;;;;;;3.80;1.02;;;17.10;62.30;;;;;;5005070;28;20088;-81
2022/05/12 09:06:37;;;;;;;3.22;0.90;;;16.80;60.40;;;;;;5010987;28;20153;-82
2022/05/12 09:09:24;;;;;;;3.75;1.08;;;17.00;59.90;;;;;;5009439;28;20034;-82
2022/05/12 09:11:53;;;;;;;5.88;1.10;;;16.80;58.40;;;;;;5021245;28;20032;-82
2022/05/12 09:14:28;;;;;;;3.35;1.05;;;17.20;58.50;;;;;;5010268;28;20037;-82
2022/05/12 09:16:53;;;;;;;3.45;1.10;;;17.20;58.00;;;;;;5010463;28;20068;-82
2022/05/12 09:19:19;;;;;;;3.28;0.90;;;17.30;57.70;;;;;;4994911;28;20372;-82
2022/05/12 09:21:45;;;;;;;6.70;1.13;;;17.40;57.70;;;;;;5000358;28;20112;-82
2022/05/12 09:24:11;;;;;;;6.22;1.27;;;16.90;59.10;;;;;;5005002;28;20018;-81
2022/05/12 09:26:42;;;;;;;5.72;1.02;;;16.80;57.30;;;;;;4993460;28;20041;-81
2022/05/12 09:29:38;;;;;;;5.15;1.00;;;17.30;57.40;;;;;;5009439;28;20084;-82
2022/05/12 09:32:04;;;;;;;4.47;1.15;;;17.70;57.40;;;;;;5000472;28;20057;-82
2022/05/12 09:34:36;;;;;;;4.43;1.15;;;17.60;57.10;;;;;;5016067;28;20069;-82
2022/05/12 09:37:26;;;;;;;4.35;0.90;;;17.50;55.30;;;;;;4996114;28;20034;-82
2022/05/12 09:40:13;;;;;;;3.10;0.98;;;17.80;55.80;;;;;;5005550;28;20027;-81
2022/05/12 09:42:45;;;;;;;3.50;0.80;;;17.80;53.00;;;;;;5003624;28;20567;-81
2022/05/12 09:45:26;;;;;;;6.57;1.10;;;17.90;54.70;;;;;;4993524;28;20481;-81
2022/05/12 09:48:28;;;;;;;2.03;0.90;;;18.20;55.20;;;;;;5010656;28;20033;-82
2022/05/12 09:51:30;;;;;;;1.92;0.80;;;18.40;52.80;;;;;;4951687;29;20046;-81
2022/05/12 09:54:15;;;;;;;3.30;0.82;;;18.10;53.30;;;;;;4991709;28;20054;-81
2022/05/12 09:56:46;;;;;;;2.67;1.02;;;18.70;52.40;;;;;;5001997;28;20069;-82
2022/05/12 09:59:14;;;;;;;5.85;1.10;;;17.70;54.00;;;;;;4993963;28;20018;-81
2022/05/12 10:02:05;;;;;;;5.85;1.10;;;17.10;54.90;;;;;;5005015;28;20033;-81
2022/05/12 10:10:22;;;;;;;5.25;0.88;;;17.30;54.30;;;;;;5011476;28;20044;-82
2022/05/12 10:12:59;;;;;;;2.83;0.77;;;16.90;54.90;;;;;;5005810;28;20109;-82
2022/05/12 10:15:34;;;;;;;5.10;0.75;;;16.90;54.40;;;;;;4998573;28;20032;-81
2022/05/12 10:18:05;;;;;;;4.30;1.00;;;16.60;55.30;;;;;;4992358;28;20029;-81
2022/05/12 10:20:35;;;;;;;4.78;0.95;;;16.50;55.30;;;;;;5011146;28;20026;-81
2022/05/12 10:23:25;;;;;;;4.68;0.90;;;16.50;56.80;;;;;;4992057;28;20030;-81
2022/05/12 10:26:02;;;;;;;4.18;1.05;;;17.00;54.70;;;;;;4999910;28;20030;-82
2022/05/12 10:28:43;;;;;;;3.38;0.80;;;18.10;52.30;;;;;;5007425;28;20081;-81
2022/05/12 10:31:27;;;;;;;3.63;1.40;;;18.30;51.50;;;;;;5002288;28;20057;-82
2022/05/12 10:34:02;;;;;;;3.78;0.80;;;18.10;52.20;;;;;;5014585;28;20080;-82
2022/05/12 10:36:33;;;;;;;1.60;0.70;;;17.90;52.60;;;;;;5013665;28;20040;-81
2022/05/12 10:39:09;;;;;;;4.47;1.00;;;17.40;52.00;;;;;;5014134;28;20032;-81
2022/05/12 10:41:39;;;;;;;1.70;0.70;;;17.20;53.60;;;;;;4995909;28;20493;-81
2022/05/12 10:44:32;;;;;;;3.83;0.75;;;17.50;51.40;;;;;;4995533;28;20080;-81
2022/05/12 10:46:57;;;;;;;3.20;0.75;;;18.20;50.70;;;;;;4999938;28;20095;-82
2022/05/12 10:49:41;;;;;;;3.42;1.15;;;18.60;48.10;;;;;;5013327;28;20057;-82
2022/05/12 10:52:37;;;;;;;3.92;0.80;;;19.00;47.90;;;;;;5017416;28;20026;-80
2022/05/12 10:55:29;;;;;;;2.38;0.63;;;18.40;50.10;;;;;;5011718;28;20481;-80
2022/05/12 10:58:19;;;;;;;3.22;0.63;;;18.00;50.90;;;;;;4995993;28;20165;-80
2022/05/12 11:01:04;;;;;;;3.63;0.70;;;18.70;48.80;;;;;;4994145;28;20023;-80
2022/05/12 11:03:36;;;;;;;3.40;0.70;;;19.00;45.00;;;;;;5012681;28;20025;-80
2022/05/12 11:06:05;;;;;;;4.25;0.73;;;19.50;43.90;;;;;;5012034;28;20037;-80
2022/05/12 11:08:45;;;;;;;1.73;0.65;;;19.20;45.70;;;;;;5013531;28;20049;-80
2022/05/12 11:11:42;;;;;;;2.72;0.70;;;18.50;45.70;;;;;;5013261;28;20022;-80
2022/05/12 11:14:15;;;;;;;3.28;0.80;;;18.20;48.00;;;;;;5013145;28;20065;-80
2022/05/12 11:16:48;;;;;;;3.97;0.70;;;18.70;46.50;;;;;;5009349;28;21522;-80
2022/05/12 11:19:20;;;;;;;4.90;0.77;;;19.30;45.00;;;;;;5008883;28;20505;-80
2022/05/12 11:22:04;;;;;;;4.50;0.80;;;19.80;45.10;;;;;;5003948;28;20030;-80
2022/05/12 11:24:49;;;;;;;3.08;0.88;;;20.30;42.10;;;;;;4999829;28;20477;-80
2022/05/12 11:31:06;;;;;;;5.82;0.63;;;20.50;42.10;;;;;;5007857;28;20040;-80
2022/05/12 11:33:35;;;;;;;2.40;0.57;;;20.40;43.20;;;;;;5029215;28;20022;-80
2022/05/12 11:36:01;;;;;;;1.83;0.55;;;20.10;43.10;;;;;;4991733;28;20030;-80
2022/05/12 11:38:42;;;;;;;4.80;1.13;;;20.70;41.80;;;;;;5000739;28;20036;-82
2022/05/12 11:41:20;;;;;;;4.47;0.80;;;20.50;41.40;;;;;;5011422;28;20247;-82
2022/05/12 11:46:46;;;;;;;1.90;0.63;;;20.10;41.60;;;;;;5007917;28;20036;-82
2022/05/12 11:49:45;;;;;;;4.05;0.70;;;20.20;41.60;;;;;;5011869;28;20128;-82
2022/05/12 11:52:36;;;;;;;1.75;0.57;;;21.20;40.60;;;;;;4994394;28;20032;-80
2022/05/12 11:55:20;;;;;;;1.67;0.50;;;21.00;39.30;;;;;;5012213;28;20038;-80
2022/05/12 11:58:21;;;;;;;3.65;0.70;;;20.70;38.80;;;;;;4996147;28;20469;-80
2022/05/12 12:00:53;;;;;;;2.50;0.68;;;20.10;38.90;;;;;;4975865;28;20077;-81
2022/05/12 12:03:19;;;;;;;1.63;0.40;;;19.70;40.40;;;;;;5002165;28;20029;-82
2022/05/12 12:05:48;;;;;;;2.28;0.60;;;19.60;40.30;;;;;;5003651;28;20080;-81
2022/05/12 12:08:43;;;;;;;1.60;0.57;;;19.50;40.70;;;;;;5003583;28;20086;-82
2022/05/12 12:11:14;;;;;;;1.33;0.43;;;19.80;39.10;;;;;;5011102;28;20037;-82
2022/05/12 12:13:43;;;;;;;1.02;0.50;;;19.30;39.60;;;;;;5008571;28;20025;-82
2022/05/12 12:16:14;;;;;;;3.58;0.60;;;20.00;40.80;;;;;;5005039;28;20571;-82
2022/05/12 12:18:39;;;;;;;2.13;0.68;;;20.70;39.80;;;;;;5006240;28;20022;-82
2022/05/12 12:21:30;;;;;;;3.53;0.73;;;20.10;39.70;;;;;;5008642;28;20018;-83
2022/05/12 12:24:15;;;;;;;2.95;0.60;;;19.60;40.30;;;;;;5009362;28;20425;-82
2022/05/12 12:26:42;;;;;;;4.63;0.57;;;19.50;40.80;;;;;;4991888;28;20408;-82
2022/05/12 12:29:17;;;;;;;2.80;0.50;;;20.30;40.00;;;;;;5010537;28;20033;-82
2022/05/12 12:31:45;;;;;;;3.47;0.70;;;21.30;38.40;;;;;;5006901;28;20092;-82
2022/05/12 12:34:15;;;;;;;2.40;0.47;;;21.50;36.90;;;;;;5012757;28;20029;-82
2022/05/12 12:36:54;;;;;;;2.40;0.50;;;21.80;36.20;;;;;;5008224;28;20022;-82
2022/05/12 12:39:41;;;;;;;1.00;0.40;;;22.40;36.20;;;;;;4992839;28;20323;-82
2022/05/12 12:42:27;;;;;;;4.97;0.70;;;22.50;36.40;;;;;;5012262;28;20025;-80
2022/05/12 12:44:57;;;;;;;5.28;0.57;;;22.40;35.90;;;;;;5010262;28;20477;-80
2022/05/12 12:47:46;;;;;;;0.40;0.40;;;22.50;35.40;;;;;;4990892;28;20480;-80
2022/05/12 12:50:11;;;;;;;3.78;0.60;;;22.00;35.20;;;;;;5007394;28;20409;-80
2022/05/12 12:52:46;;;;;;;5.40;0.75;;;21.40;36.50;;;;;;5011044;28;20025;-80
2022/05/12 12:58:31;;;;;;;2.28;0.50;;;20.80;38.60;;;;;;5010046;28;20096;-80
2022/05/12 13:01:00;;;;;;;1.73;0.60;;;20.70;38.60;;;;;;4991022;28;20030;-80
2022/05/12 13:03:31;;;;;;;1.17;0.50;;;21.00;38.70;;;;;;5009782;28;20033;-80
2022/05/12 13:06:09;;;;;;;1.65;0.47;;;21.90;37.60;;;;;;5004045;28;20068;-80
2022/05/12 13:08:35;;;;;;;2.80;0.70;;;21.00;38.30;;;;;;5005907;28;20065;-80
2022/05/12 13:11:03;;;;;;;2.58;0.70;;;20.80;38.50;;;;;;4999744;28;20572;-79
2022/05/12 13:13:29;;;;;;;4.05;0.95;;;21.90;37.80;;;;;;4990719;28;20121;-80
2022/05/12 13:16:01;;;;;;;3.10;0.60;;;22.40;35.70;;;;;;5007660;28;20129;-80
2022/05/12 13:18:30;;;;;;;2.20;0.55;;;21.90;35.90;;;;;;4996987;28;20030;-79
2022/05/12 13:20:58;;;;;;;3.70;0.68;;;21.70;37.00;;;;;;5028924;28;20025;-80
2022/05/12 13:23:25;;;;;;;2.85;0.95;;;21.90;37.10;;;;;;5017719;28;20552;-80
2022/05/12 13:25:52;;;;;;;3.22;0.70;;;22.70;36.00;;;;;;5006663;28;20037;-80